createdAt,value
2022-10-26T00:00:23.939Z,11.40
2022-10-26T00:03:27.225Z,11.50
2022-10-26T00:06:30.501Z,11.50
2022-10-26T00:09:33.794Z,11.50
2022-10-26T00:12:38.529Z,11.50
2022-10-26T00:15:43.009Z,11.50
2022-10-26T00:18:47.060Z,11.60
2022-10-26T00:21:50.573Z,11.50
2022-10-26T00:24:54.341Z,11.50
2022-10-26T00:27:58.980Z,11.60
2022-10-26T00:31:03.543Z,11.60
2022-10-26T00:34:07.107Z,11.50
2022-10-26T00:37:10.824Z,11.60
2022-10-26T00:40:14.352Z,11.50
2022-10-26T00:43:37.247Z,11.50
2022-10-26T00:46:40.545Z,11.40
2022-10-26T00:49:46.744Z,11.40
2022-10-26T00:52:51.485Z,11.40
2022-10-26T00:55:55.828Z,11.30
2022-10-26T00:59:05.583Z,11.40
2022-10-26T01:02:09.365Z,11.50
2022-10-26T01:05:13.520Z,11.50
2022-10-26T01:08:18.310Z,11.50
2022-10-26T01:11:22.142Z,11.50
2022-10-26T01:14:29.135Z,11.60
2022-10-26T01:17:47.603Z,11.60
2022-10-26T01:21:15.017Z,11.60
2022-10-26T01:24:46.478Z,11.50
2022-10-26T01:27:52.286Z,11.40
2022-10-26T01:31:01.724Z,11.40
2022-10-26T01:34:10.889Z,11.40
2022-10-26T01:37:16.414Z,11.40
2022-10-26T01:40:26.925Z,11.40
2022-10-26T01:43:34.513Z,11.40
2022-10-26T01:46:41.783Z,11.50
2022-10-26T01:49:48.673Z,11.50
2022-10-26T01:52:52.222Z,11.50
2022-10-26T01:55:56.596Z,11.50
2022-10-26T01:59:32.102Z,11.50
2022-10-26T02:02:58.928Z,11.40
2022-10-26T02:06:12.436Z,11.50
2022-10-26T02:09:24.870Z,11.50
2022-10-26T02:12:35.383Z,11.50
2022-10-26T02:15:48.025Z,11.50
2022-10-26T02:19:00.869Z,11.50
2022-10-26T02:22:10.827Z,11.50
2022-10-26T02:25:19.317Z,11.50
2022-10-26T02:28:30.041Z,11.50
2022-10-26T02:31:34.928Z,11.40
2022-10-26T02:34:41.025Z,11.40
2022-10-26T02:37:46.971Z,11.40
2022-10-26T02:40:52.925Z,11.30
2022-10-26T02:44:01.481Z,11.30
2022-10-26T02:47:04.759Z,11.30
2022-10-26T02:50:10.590Z,11.30
2022-10-26T02:53:23.249Z,11.30
2022-10-26T02:56:30.710Z,11.30
2022-10-26T02:59:37.755Z,11.30
2022-10-26T03:02:46.083Z,11.30
2022-10-26T03:05:53.470Z,11.20
2022-10-26T03:08:56.987Z,11.30
2022-10-26T03:12:00.443Z,11.30
2022-10-26T03:15:04.186Z,11.20
2022-10-26T03:18:07.526Z,11.20
2022-10-26T03:21:12.551Z,11.30
2022-10-26T03:24:16.201Z,11.30
2022-10-26T03:27:19.855Z,11.30
2022-10-26T03:30:23.161Z,11.20
2022-10-26T03:33:27.311Z,11.20
2022-10-26T03:36:33.005Z,11.20
2022-10-26T03:39:36.226Z,11.10
2022-10-26T03:42:40.489Z,11.10
2022-10-26T03:45:44.266Z,11.10
2022-10-26T03:48:47.483Z,11.20
2022-10-26T03:51:52.154Z,11.20
2022-10-26T03:54:55.393Z,11.20
2022-10-26T03:57:58.626Z,11.10
2022-10-26T04:01:01.804Z,11.10
2022-10-26T04:04:05.070Z,11.10
2022-10-26T04:07:09.790Z,11.20
2022-10-26T04:10:13.070Z,11.10
2022-10-26T04:13:16.371Z,11.10
2022-10-26T04:16:19.605Z,11.10
2022-10-26T04:19:22.864Z,11.00
2022-10-26T04:22:27.503Z,11.00
2022-10-26T04:25:33.071Z,11.10
2022-10-26T04:28:36.773Z,11.10
2022-10-26T04:31:41.338Z,11.10
2022-10-26T04:34:44.601Z,11.10
2022-10-26T04:37:49.997Z,11.10
2022-10-26T04:40:53.480Z,11.10
2022-10-26T04:43:57.024Z,11.10
2022-10-26T04:47:06.258Z,11.10
2022-10-26T04:50:11.993Z,11.10
2022-10-26T04:53:16.784Z,11.10
2022-10-26T04:56:19.974Z,11.10
2022-10-26T04:59:23.224Z,11.10
2022-10-26T05:02:26.748Z,11.00
2022-10-26T05:05:31.702Z,11.00
2022-10-26T05:08:36.360Z,11.00
2022-10-26T05:11:39.688Z,11.00
2022-10-26T05:14:42.989Z,11.00
2022-10-26T05:17:46.575Z,11.00
2022-10-26T05:20:50.771Z,11.00
2022-10-26T05:23:55.639Z,11.00
2022-10-26T05:26:59.023Z,11.00
2022-10-26T05:30:03.167Z,11.00
2022-10-26T05:33:07.602Z,11.00
2022-10-26T05:36:11.080Z,11.10
2022-10-26T05:39:15.715Z,11.10
2022-10-26T05:42:20.608Z,11.10
2022-10-26T05:45:23.940Z,11.10
2022-10-26T05:48:27.123Z,11.10
2022-10-26T05:51:30.308Z,11.10
2022-10-26T05:54:34.843Z,11.20
2022-10-26T05:57:38.874Z,11.10
2022-10-26T06:00:51.113Z,11.20
2022-10-26T06:04:11.002Z,11.20
2022-10-26T06:07:16.399Z,11.20
2022-10-26T06:10:22.030Z,11.20
2022-10-26T06:13:25.899Z,11.20
2022-10-26T06:16:39.961Z,11.20
2022-10-26T06:19:57.425Z,11.30
2022-10-26T06:23:19.151Z,11.30
2022-10-26T06:26:34.738Z,11.20
2022-10-26T06:29:49.361Z,11.20
2022-10-26T06:33:01.431Z,11.20
2022-10-26T06:36:23.964Z,11.20
2022-10-26T06:39:32.998Z,11.20
2022-10-26T06:42:38.504Z,11.20
2022-10-26T06:45:44.906Z,11.30
2022-10-26T06:48:57.858Z,11.30
2022-10-26T06:52:03.992Z,11.20
2022-10-26T06:55:14.241Z,11.30
2022-10-26T06:58:20.581Z,11.40
2022-10-26T07:01:24.330Z,11.40
2022-10-26T07:04:27.827Z,11.40
2022-10-26T07:07:33.101Z,11.50
2022-10-26T07:10:38.939Z,11.50
2022-10-26T07:13:45.219Z,11.50
2022-10-26T07:16:48.555Z,11.50
2022-10-26T07:19:51.854Z,11.50
2022-10-26T07:22:55.735Z,11.50
2022-10-26T07:26:00.862Z,11.50
2022-10-26T07:29:05.654Z,11.40
2022-10-26T07:32:09.082Z,11.30
2022-10-26T07:35:12.885Z,11.30
2022-10-26T07:38:16.160Z,11.30
2022-10-26T07:41:19.381Z,11.30
2022-10-26T07:44:24.069Z,11.30
2022-10-26T07:47:27.400Z,11.30
2022-10-26T07:50:30.803Z,11.20
2022-10-26T07:53:33.999Z,11.20
2022-10-26T07:56:37.324Z,11.30
2022-10-26T07:59:41.998Z,11.40
2022-10-26T08:02:45.254Z,11.60
2022-10-26T08:05:51.179Z,11.80
2022-10-26T08:08:54.587Z,11.90
2022-10-26T08:11:57.755Z,12.10
2022-10-26T08:15:02.399Z,12.20
2022-10-26T08:18:06.608Z,12.30
2022-10-26T08:21:15.626Z,12.50
2022-10-26T08:24:24.878Z,12.50
2022-10-26T08:27:28.811Z,12.50
2022-10-26T08:33:40.805Z,12.40
2022-10-26T08:36:47.309Z,12.50
2022-10-26T08:39:53.949Z,12.40
2022-10-26T08:43:05.328Z,12.40
2022-10-26T08:46:14.908Z,12.40
2022-10-26T08:49:22.443Z,12.50
2022-10-26T08:52:31.247Z,12.60
2022-10-26T08:58:52.452Z,12.70
2022-10-26T09:01:57.133Z,12.70
2022-10-26T09:05:01.398Z,12.70
2022-10-26T09:08:14.031Z,12.80
2022-10-26T09:11:29.554Z,12.70
2022-10-26T09:14:43.578Z,12.50
2022-10-26T09:17:58.642Z,12.50
2022-10-26T09:21:13.207Z,12.70
2022-10-26T09:24:22.038Z,12.60
2022-10-26T09:27:29.180Z,12.60
2022-10-26T09:30:32.776Z,12.60
2022-10-26T09:33:40.560Z,12.60
2022-10-26T09:36:43.842Z,12.50
2022-10-26T09:39:53.347Z,12.60
2022-10-26T09:43:01.725Z,12.60
2022-10-26T09:46:05.145Z,12.60
2022-10-26T09:49:13.913Z,12.50
2022-10-26T09:52:17.409Z,12.40
2022-10-26T09:55:22.861Z,12.40
2022-10-26T09:58:29.846Z,12.20
2022-10-26T10:01:38.297Z,12.20
2022-10-26T10:04:49.310Z,12.20
2022-10-26T10:07:52.853Z,12.10
2022-10-26T10:10:58.900Z,12.30
2022-10-26T10:14:09.462Z,12.50
2022-10-26T10:17:22.484Z,12.50
2022-10-26T10:20:30.041Z,12.60
2022-10-26T10:23:34.737Z,12.50
2022-10-26T10:26:57.801Z,12.40
2022-10-26T10:30:21.666Z,12.40
2022-10-26T10:33:32.849Z,12.50
2022-10-26T10:36:37.495Z,12.50
2022-10-26T10:39:42.901Z,12.60
2022-10-26T10:42:48.249Z,12.60
2022-10-26T10:45:55.845Z,12.50
2022-10-26T10:49:05.445Z,12.50
2022-10-26T10:52:23.621Z,12.40
2022-10-26T10:55:27.325Z,12.50
2022-10-26T10:58:36.015Z,12.60
2022-10-26T11:01:41.543Z,12.60
2022-10-26T11:05:02.049Z,12.60
2022-10-26T11:08:09.682Z,12.80
2022-10-26T11:11:16.742Z,12.90
2022-10-26T11:14:25.089Z,12.80
2022-10-26T11:17:32.713Z,13.00
2022-10-26T11:20:39.780Z,13.10
2022-10-26T11:23:50.728Z,13.20
2022-10-26T11:26:57.838Z,13.30
2022-10-26T11:30:06.026Z,13.40
2022-10-26T11:33:16.655Z,13.60
2022-10-26T11:36:23.567Z,13.90
2022-10-26T11:39:37.656Z,14.20
2022-10-26T11:42:46.110Z,14.30
2022-10-26T11:49:11.815Z,14.00
2022-10-26T11:52:19.415Z,14.00
2022-10-26T11:55:25.044Z,13.90
2022-10-26T11:58:29.795Z,14.00
2022-10-26T12:01:35.065Z,13.90
2022-10-26T12:04:39.686Z,13.90
2022-10-26T12:07:48.119Z,14.00
2022-10-26T12:11:02.673Z,14.10
2022-10-26T12:14:15.855Z,14.40
2022-10-26T12:17:24.865Z,14.40
2022-10-26T12:21:03.698Z,14.40
2022-10-26T12:24:26.811Z,14.60
2022-10-26T12:27:51.970Z,14.80
2022-10-26T12:31:15.172Z,14.90
2022-10-26T12:34:25.598Z,14.90
2022-10-26T12:37:37.875Z,15.00
2022-10-26T12:40:44.925Z,14.90
2022-10-26T12:43:49.982Z,14.70
2022-10-26T12:46:53.495Z,14.70
2022-10-26T12:50:00.821Z,14.60
2022-10-26T12:53:12.048Z,14.60
2022-10-26T12:56:21.385Z,14.30
2022-10-26T12:59:31.959Z,14.30
2022-10-26T13:02:52.356Z,14.40
2022-10-26T13:06:18.908Z,14.40
2022-10-26T13:09:24.468Z,14.30
2022-10-26T13:12:29.095Z,14.20
2022-10-26T13:15:39.814Z,14.10
2022-10-26T13:18:45.028Z,14.30
2022-10-26T13:21:50.313Z,14.40
2022-10-26T13:24:56.459Z,14.40
2022-10-26T13:28:06.092Z,14.50
2022-10-26T13:31:18.431Z,15.00
2022-10-26T13:34:23.749Z,15.10
2022-10-26T13:37:30.264Z,15.50
2022-10-26T13:40:34.463Z,15.90
2022-10-26T13:43:38.639Z,16.50
2022-10-26T13:46:43.646Z,16.70
2022-10-26T13:49:49.375Z,16.80
2022-10-26T13:52:55.667Z,17.00
2022-10-26T13:56:05.722Z,16.40
2022-10-26T13:59:12.080Z,15.90
2022-10-26T14:02:24.655Z,15.50
2022-10-26T14:05:28.166Z,15.20
2022-10-26T14:08:31.583Z,15.10
2022-10-26T14:11:38.390Z,14.80
2022-10-26T14:14:42.263Z,14.40
2022-10-26T14:17:51.901Z,14.20
2022-10-26T14:20:59.732Z,14.00
2022-10-26T14:24:07.639Z,13.80
2022-10-26T14:27:17.075Z,13.70
2022-10-26T14:30:25.909Z,13.70
2022-10-26T14:33:30.669Z,13.70
2022-10-26T14:36:40.043Z,13.50
2022-10-26T14:39:45.846Z,13.40
2022-10-26T14:42:51.528Z,13.20
2022-10-26T14:45:57.361Z,13.10
2022-10-26T14:49:03.979Z,13.10
2022-10-26T14:52:08.200Z,13.00
2022-10-26T14:55:16.100Z,13.00
2022-10-26T14:58:26.736Z,12.90
2022-10-26T15:01:36.549Z,12.70
2022-10-26T15:04:43.706Z,12.50
2022-10-26T15:07:47.545Z,12.30
2022-10-26T15:10:51.872Z,12.20
2022-10-26T15:13:55.861Z,11.90
2022-10-26T15:17:00.866Z,11.70
2022-10-26T15:20:07.683Z,11.40
2022-10-26T15:23:15.699Z,11.20
2022-10-26T15:26:19.187Z,11.00
2022-10-26T15:29:41.218Z,10.90
2022-10-26T15:32:44.573Z,10.70
2022-10-26T15:35:49.279Z,10.40
2022-10-26T15:38:56.243Z,10.30
2022-10-26T15:42:00.251Z,10.10
2022-10-26T15:45:04.273Z,9.90
2022-10-26T15:48:25.665Z,9.80
2022-10-26T15:51:33.098Z,9.60
2022-10-26T15:54:36.310Z,9.50
2022-10-26T15:57:40.219Z,9.50
2022-10-26T16:00:43.525Z,9.40
2022-10-26T16:03:47.050Z,9.30
2022-10-26T16:06:51.710Z,9.20
2022-10-26T16:10:04.994Z,9.10
2022-10-26T16:13:13.970Z,9.00
2022-10-26T16:16:18.575Z,9.00
2022-10-26T16:19:31.125Z,9.00
2022-10-26T16:22:38.330Z,9.00
2022-10-26T16:25:44.528Z,8.80
2022-10-26T16:28:47.994Z,8.70
2022-10-26T16:31:51.426Z,8.70
2022-10-26T16:34:54.724Z,8.60
2022-10-26T16:37:59.928Z,8.60
2022-10-26T16:41:04.267Z,8.60
2022-10-26T16:44:08.040Z,8.60
2022-10-26T16:47:11.905Z,8.50
2022-10-26T16:50:15.569Z,8.50
2022-10-26T16:53:20.677Z,8.40
2022-10-26T16:56:26.113Z,8.30
2022-10-26T16:59:30.282Z,8.10
2022-10-26T17:02:33.740Z,8.10
2022-10-26T17:05:37.225Z,8.00
2022-10-26T17:08:42.155Z,7.90
2022-10-26T17:11:47.535Z,7.80
2022-10-26T17:14:51.420Z,7.80
2022-10-26T17:17:56.794Z,7.80
2022-10-26T17:21:01.713Z,7.70
2022-10-26T17:24:07.681Z,7.70
2022-10-26T17:27:11.938Z,7.70
2022-10-26T17:30:15.891Z,7.60
2022-10-26T17:33:24.115Z,7.60
2022-10-26T17:36:31.784Z,7.60
2022-10-26T17:39:40.122Z,7.50
2022-10-26T17:42:44.103Z,7.40
2022-10-26T17:48:57.077Z,7.10
2022-10-26T17:52:00.680Z,7.00
2022-10-26T17:55:06.112Z,7.00
2022-10-26T17:58:10.056Z,6.90
2022-10-26T18:01:14.924Z,6.90
2022-10-26T18:04:18.429Z,7.00
2022-10-26T18:07:21.949Z,7.00
2022-10-26T18:10:37.553Z,6.90
2022-10-26T18:13:41.740Z,6.80
2022-10-26T18:16:45.299Z,6.90
2022-10-26T18:19:48.850Z,6.90
2022-10-26T18:22:52.351Z,6.90
2022-10-26T18:26:08.342Z,6.80
2022-10-26T18:29:14.879Z,6.80
2022-10-26T18:32:18.226Z,6.70
2022-10-26T18:35:21.609Z,6.60
2022-10-26T18:38:24.918Z,6.50
2022-10-26T18:41:29.611Z,6.50
2022-10-26T18:44:32.890Z,6.40
2022-10-26T18:47:36.309Z,6.30
2022-10-26T18:50:39.651Z,6.30
2022-10-26T18:53:44.471Z,6.30
2022-10-26T18:56:49.695Z,6.20
2022-10-26T18:59:55.006Z,6.20
2022-10-26T19:02:59.483Z,6.40
2022-10-26T19:06:10.181Z,6.60
2022-10-26T19:09:14.646Z,6.90
2022-10-26T19:12:19.597Z,6.80
2022-10-26T19:15:23.250Z,6.80
2022-10-26T19:18:29.252Z,7.00
2022-10-26T19:21:33.294Z,7.10
2022-10-26T19:24:36.906Z,7.20
2022-10-26T19:27:41.742Z,7.20
2022-10-26T19:30:45.074Z,7.00
2022-10-26T19:33:48.503Z,6.80
2022-10-26T19:36:51.822Z,6.70
2022-10-26T19:39:55.238Z,6.60
2022-10-26T19:43:00.180Z,6.50
2022-10-26T19:46:08.787Z,6.40
2022-10-26T19:49:13.691Z,6.40
2022-10-26T19:55:20.482Z,6.30
2022-10-26T19:58:25.816Z,6.20
2022-10-26T20:01:29.366Z,6.20
2022-10-26T20:04:32.874Z,6.10
2022-10-26T20:07:36.803Z,6.10
2022-10-26T20:10:42.810Z,6.00
2022-10-26T20:13:48.747Z,5.90
2022-10-26T20:17:01.189Z,5.80
2022-10-26T20:20:05.213Z,5.80
2022-10-26T20:23:10.640Z,5.60
2022-10-26T20:26:18.689Z,5.60
2022-10-26T20:29:23.593Z,5.60
2022-10-26T20:32:28.365Z,5.60
2022-10-26T20:35:33.092Z,5.50
2022-10-26T20:38:37.086Z,5.50
2022-10-26T20:41:43.564Z,5.50
2022-10-26T20:44:47.662Z,5.40
2022-10-26T20:47:54.546Z,5.40
2022-10-26T20:51:04.731Z,5.40
2022-10-26T20:54:16.778Z,5.40
2022-10-26T20:57:26.828Z,5.40
2022-10-26T21:00:33.391Z,5.40
2022-10-26T21:03:38.243Z,5.40
2022-10-26T21:06:41.619Z,5.40
2022-10-26T21:09:44.890Z,5.30
2022-10-26T21:12:48.809Z,5.20
2022-10-26T21:15:52.429Z,5.10
2022-10-26T21:18:57.209Z,5.10
2022-10-26T21:22:00.518Z,5.00
2022-10-26T21:25:03.759Z,4.90
2022-10-26T21:28:07.991Z,4.80
2022-10-26T21:31:12.973Z,4.80
2022-10-26T21:34:17.635Z,4.90
2022-10-26T21:37:21.033Z,4.90
2022-10-26T21:40:24.211Z,4.90
2022-10-26T21:43:27.567Z,5.00
2022-10-26T21:46:30.794Z,5.00
2022-10-26T21:49:35.471Z,5.00
2022-10-26T21:52:38.713Z,5.00
2022-10-26T21:55:41.921Z,4.80
2022-10-26T21:58:45.600Z,4.80
2022-10-26T22:01:48.971Z,4.70
2022-10-26T22:04:54.110Z,4.70
2022-10-26T22:07:57.777Z,4.60
2022-10-26T22:11:05.874Z,4.60
2022-10-26T22:14:09.290Z,4.60
2022-10-26T22:17:12.636Z,4.50
2022-10-26T22:20:17.725Z,4.50
2022-10-26T22:23:20.943Z,4.50
2022-10-26T22:26:25.516Z,4.50
2022-10-26T22:29:28.746Z,4.60
2022-10-26T22:32:32.142Z,4.60
2022-10-26T22:35:36.735Z,4.60
2022-10-26T22:38:40.489Z,4.60
2022-10-26T22:41:44.137Z,4.60
2022-10-26T22:44:47.458Z,4.60
2022-10-26T22:47:50.652Z,4.50
2022-10-26T22:50:55.236Z,4.40
2022-10-26T22:54:00.121Z,4.30
2022-10-26T22:57:03.543Z,4.30
2022-10-26T23:00:08.593Z,4.30
2022-10-26T23:03:11.949Z,4.30
2022-10-26T23:06:18.763Z,4.30
2022-10-26T23:09:22.149Z,4.30
2022-10-26T23:12:25.446Z,4.30
2022-10-26T23:15:28.635Z,4.30
2022-10-26T23:18:31.804Z,4.30
2022-10-26T23:21:36.727Z,4.40
2022-10-26T23:24:39.938Z,4.50
2022-10-26T23:27:43.149Z,4.60
2022-10-26T23:30:46.541Z,4.70
2022-10-26T23:33:51.882Z,4.80
2022-10-26T23:36:56.606Z,4.90
2022-10-26T23:40:00.057Z,4.90
2022-10-26T23:43:03.825Z,4.90
2022-10-26T23:46:07.096Z,5.10
2022-10-26T23:49:10.267Z,5.20
2022-10-26T23:52:14.953Z,5.30
2022-10-26T23:55:18.472Z,5.30
2022-10-26T23:58:25.382Z,5.30
